Gay, West Virginia
Current Conditions -  °F | °C
As of 9:54 AM on Thursday 23 Oct 2014 (Local Time) from KCRW Reporting Station
Overcast Overcast  
Wind Chill: 48°   Ceiling: 3900
Heat Index: 48°   Visibility: 10mi
Dew Point: 42°   Wind: 3mph
Humidity: 80%   Direction: 280°W
Pressure: 30.22"   Gusts: NA
Location:  38.77°N, 81.55°W
Report Text: KCRW 231354Z 28003KT 10SM SCT011 OVC039 09/06 A3022 RMK AO2 SLP233 T00890056
Loading
Personal Weather Stations






























Interactive Weather Map
Tropical Storm Tracking
New forecast layout! Learn more

10-Day Weather Forecast

Advertisements
Track Severe Weather on mobile